Flight Track Log - Related Links

Times and Time Zones

All times are in EDT time to prevent confusion due to time zone crossing. See the SKW6345 flight status page for this flight to view local times or setup timezone preferences in your user account.

Time Position Orientation Groundspeed Altitude Reporting Facility
EDT Latitude Longitude Course Direction KTS MPH feet Rate Location/Type
Thu 11:51:18 AM 37.6333 -122.3667 38° Northeast 156 180 600  Level Northern Cal TRACON
Thu 11:52:24 AM 37.6667 -122.3000 58° Northeast 205 236 3,000 2,238 Climbing Northern Cal TRACON
Thu 11:53:24 AM 37.7167 -122.2500 38° Northeast 256 295 5,300 2,430 Climbing Northern Cal TRACON
Thu 11:54:00 AM 37.6527 -122.3307 38° Northeast  Level FlightAware Approximate
Thu 11:54:25 AM 37.7667 -122.1833 46° Northeast 269 310 7,900  Level Northern Cal TRACON
Thu 11:55:00 AM 37.7476 -122.2358 38° Northeast  Level FlightAware Approximate
Thu 11:55:25 AM 37.8333 -122.1167 38° Northeast 287 330 10,400  Level Northern Cal TRACON
Thu 11:56:00 AM 37.8425 -122.1409 38° Northeast  Level FlightAware Approximate
Thu 11:56:25 AM 37.9053 -122.0600 32° Northeast 308 354 11,600  Level Oakland Center
Thu 11:57:26 AM 37.9806 -121.9897 36° Northeast 333 383 13,400 1,610 Climbing Oakland Center
Thu 11:58:28 AM 38.0594 -121.9147 37° Northeast 351 404 14,900 1,512 Climbing Oakland Center
Thu 11:59:29 AM 38.1414 -121.8378 36° Northeast 364 419 16,500 1,415 Climbing Oakland Center
Thu 12:00:31 PM 38.2244 -121.7606 36° Northeast 370 426 17,800 1,210 Climbing Oakland Center
Thu 12:01:33 PM 38.3089 -121.6797 37° Northeast 378 435 19,000 1,317 Climbing Oakland Center
Thu 12:02:34 PM 38.4147 -121.5800 36° Northeast 393 452 20,500 1,230 Climbing Oakland Center
Thu 12:03:35 PM 38.4897 -121.4719 48° Northeast 416 479 21,500 976 Climbing Oakland Center
Thu 12:04:37 PM 38.5589 -121.3556 53° Northeast 414 476 22,500 927 Climbing Oakland Center
Thu 12:05:38 PM 38.6522 -121.2711 35° Northeast 410 472 23,400 878 Climbing Oakland Center
Thu 12:06:40 PM 38.7472 -121.1942 32° Northeast 409 471 24,300 780 Climbing Oakland Center
Thu 12:07:41 PM 38.8469 -121.1142 32° Northeast 418 481 25,000 780 Climbing Oakland Center
Thu 12:08:43 PM 38.9464 -121.0331 32° Northeast 422 486 25,900 780 Climbing Oakland Center
Thu 12:09:44 PM 39.0456 -120.9517 33° Northeast 422 486 26,600 629 Climbing Oakland Center
Thu 12:10:47 PM 39.1661 -120.8528 32° Northeast 426 490 27,200 537 Climbing Oakland Center
Thu 12:11:47 PM 39.2692 -120.7697 32° Northeast 432 497 27,700 492 Climbing Oakland Center
Thu 12:12:49 PM 39.3719 -120.6856 32° Northeast 436 502 28,200 488 Climbing Oakland Center
Thu 12:13:50 PM 39.4753 -120.5994 33° Northeast 439 505 28,700 488 Climbing Oakland Center
Thu 12:14:52 PM 39.5794 -120.5139 32° Northeast 442 509 29,200 488 Climbing Oakland Center
Thu 12:15:53 PM 39.6825 -120.4264 33° Northeast 442 509 29,700 488 Climbing Oakland Center
Thu 12:16:55 PM 39.7861 -120.3397 33° Northeast 442 509 30,200 488 Climbing Oakland Center
Thu 12:17:56 PM 39.8894 -120.2536 33° Northeast 442 509 30,700 537 Climbing Oakland Center
Thu 12:18:58 PM 40.0144 -120.1503 32° Northeast 442 509 31,300 537 Climbing Oakland Center
Thu 12:19:59 PM 40.1186 -120.0617 33° Northeast 447 514 31,800 488 Climbing Oakland Center
Thu 12:21:01 PM 40.2217 -119.9736 33° Northeast 444 511 32,300 537 Climbing Oakland Center
Thu 12:22:02 PM 40.3258 -119.8844 33° Northeast 445 512 32,900 341 Climbing Oakland Center
Thu 12:23:04 PM 40.4292 -119.7972 33° Northeast 442 509 33,000 49 Climbing Oakland Center
Thu 12:24:05 PM 40.5333 -119.7069 33° Northeast 446 513 33,000  Level Oakland Center
Thu 12:25:07 PM 40.6494 -119.6075 33° Northeast 456 525 33,000  Level Oakland Center
Thu 12:26:08 PM 40.7653 -119.5072 33° Northeast 461 531 33,000  Level Oakland Center
Thu 12:27:10 PM 40.8592 -119.4264 33° Northeast 467 537 33,000  Level Oakland Center
Thu 12:28:15 PM 40.9828 -119.3178 34° Northeast 474 545 33,000  Level Salt Lake Center
Thu 12:29:17 PM 41.1067 -119.2103 33° Northeast 476 548 33,000  Level Salt Lake Center
Thu 12:30:19 PM 41.2136 -119.1164 33° Northeast 478 550 33,000  Level Salt Lake Center
Thu 12:31:21 PM 41.3383 -119.0067 33° Northeast 481 554 33,000  Level Salt Lake Center
Thu 12:32:23 PM 41.4439 -118.9131 34° Northeast 477 549 33,000  Level Salt Lake Center
Thu 12:33:25 PM 41.5522 -118.8164 34° Northeast 484 557 33,000  Level Salt Lake Center
Thu 12:34:27 PM 41.6781 -118.7036 34° Northeast 485 558 33,000  Level Salt Lake Center
Thu 12:35:29 PM 41.7864 -118.6064 34° Northeast 487 560 33,000  Level Salt Lake Center
Thu 12:36:31 PM 41.9125 -118.4928 34° Northeast 489 563 33,000  Level Salt Lake Center
Thu 12:37:33 PM 42.0214 -118.3950 34° Northeast 490 564 33,000  Level Salt Lake Center
Thu 12:38:35 PM 42.1478 -118.2803 34° Northeast 489 563 33,000  Level Salt Lake Center
Thu 12:39:37 PM 42.2567 -118.1786 35° Northeast 494 568 33,000  Level Salt Lake Center
Thu 12:40:39 PM 42.3692 -118.0736 35° Northeast 495 570 33,000  Level Salt Lake Center
Thu 12:41:41 PM 42.4931 -117.9528 36° Northeast 491 565 33,000  Level Salt Lake Center
Thu 12:42:43 PM 42.5997 -117.8469 36° Northeast 494 568 33,000  Level Salt Lake Center
Thu 12:43:45 PM 42.6936 -117.6747 53° Northeast 509 586 33,000  Level Salt Lake Center
Thu 12:44:47 PM 42.7728 -117.5294 53° Northeast 501 577 33,000  Level Salt Lake Center
Thu 12:45:49 PM 42.8656 -117.3583 53° Northeast 503 579 33,000  Level Salt Lake Center
Thu 12:46:51 PM 42.9433 -117.2114 54° Northeast 501 577 33,000  Level Salt Lake Center
Thu 12:47:53 PM 43.0361 -117.0397 53° Northeast 502 578 33,000  Level Salt Lake Center
Thu 12:48:55 PM 43.1147 -116.8917 54° Northeast 504 580 33,000  Level Salt Lake Center
Thu 12:49:56 PM 43.2064 -116.7192 54° Northeast 502 578 33,000  Level Salt Lake Center
Thu 12:50:58 PM 43.2847 -116.5708 54° Northeast 503 579 33,000  Level Salt Lake Center
Thu 12:52:00 PM 43.3753 -116.3972 54° Northeast 502 578 33,000  Level Salt Lake Center
Thu 12:53:02 PM 43.4525 -116.2481 54° Northeast 502 578 33,000  Level Salt Lake Center
Thu 12:54:04 PM 43.5300 -116.0986 54° Northeast 503 579 33,000  Level Salt Lake Center
Thu 12:55:06 PM 43.6192 -115.9242 55° Northeast 501 577 33,000  Level Salt Lake Center
Thu 12:56:08 PM 43.6961 -115.7744 55° Northeast 502 578 33,000  Level Salt Lake Center
Thu 12:57:10 PM 43.7853 -115.5997 55° Northeast 502 578 33,000  Level Salt Lake Center
Thu 12:58:12 PM 43.8597 -115.4503 55° Northeast 498 573 33,000  Level Salt Lake Center
Thu 12:59:14 PM 43.9472 -115.2775 55° Northeast 492 566 33,000  Level Salt Lake Center
Thu 01:00:17 PM 44.0336 -115.1039 55° Northeast 493 567 33,000  Level Salt Lake Center
Thu 01:01:19 PM 44.1083 -114.9544 55° Northeast 494 568 33,000  Level Salt Lake Center
Thu 01:02:21 PM 44.1928 -114.7808 56° Northeast 490 564 33,000  Level Salt Lake Center
Thu 01:03:23 PM 44.2661 -114.6317 55° Northeast 489 563 33,000  Level Salt Lake Center
Thu 01:04:25 PM 44.3514 -114.4578 56° Northeast 488 562 33,000  Level Salt Lake Center
Thu 01:05:27 PM 44.4242 -114.3072 56° Northeast 489 563 33,000  Level Salt Lake Center
Thu 01:06:29 PM 44.5089 -114.1325 56° Northeast 488 562 33,000  Level Salt Lake Center
Thu 01:07:31 PM 44.5814 -113.9828 56° Northeast 487 560 33,000  Level Salt Lake Center
Thu 01:08:33 PM 44.6561 -113.8242 56° Northeast 488 562 33,000  Level Salt Lake Center
Thu 01:09:34 PM 44.7342 -113.6456 58° Northeast 483 556 33,000  Level Salt Lake Center
Thu 01:10:36 PM 44.8022 -113.4903 58° Northeast 486 559 33,000  Level Salt Lake Center
Thu 01:11:38 PM 44.8839 -113.3078 58° Northeast 492 566 33,000  Level Salt Lake Center
Thu 01:12:40 PM 44.9517 -113.1519 58° Northeast 488 562 33,000  Level Salt Lake Center
Thu 01:13:42 PM 45.0192 -112.9956 59° Northeast 487 560 33,000 -435 Level Salt Lake Center
Thu 01:14:44 PM 45.0981 -112.8114 59° Northeast 489 563 32,100 -1,694 Descending Salt Lake Center
Thu 01:15:46 PM 45.1664 -112.6528 59° Northeast 491 565 29,500 -2,613 Descending Salt Lake Center
Thu 01:16:48 PM 45.2453 -112.4694 59° Northeast 487 560 26,700 -2,390 Descending Salt Lake Center
Thu 01:17:49 PM 45.3072 -112.3231 59° Northeast 459 528 24,600 -2,244 Descending Salt Lake Center
Thu 01:18:51 PM 45.3722 -112.1683 59° Northeast 412 474 22,100 -2,419 Descending Salt Lake Center
Thu 01:19:53 PM 45.4169 -112.0586 60° Northeast 391 450 19,600 -2,855 Descending Salt Lake Center
Thu 01:20:55 PM 45.4828 -111.9033 59° Northeast 385 443 16,200 -2,952 Descending Salt Lake Center
Thu 01:21:57 PM 45.5342 -111.7783 60° Northeast 371 427 13,500 -1,597 Descending Salt Lake Center
Thu 01:22:59 PM 45.5856 -111.6547 59° Northeast 363 418 12,900 -1,161 Descending Salt Lake Center
Thu 01:24:01 PM 45.6358 -111.5358 59° Northeast 358 412 11,100 -1,645 Descending Salt Lake Center
Thu 01:25:03 PM 45.7097 -111.4989 19° North 315 362 9,500 -1,500 Descending Salt Lake Center
Thu 01:26:05 PM 45.7839 -111.5150 351° North 283 326 8,000 -726 Descending Salt Lake Center
Thu 01:27:07 PM 45.8458 -111.5039 North 247 284 8,000 -48 Level Salt Lake Center
Thu 01:28:09 PM 45.9067 -111.4717 20° North 233 268 7,900 -48 Descending Salt Lake Center
Thu 01:29:11 PM 45.9475 -111.3942 53° Northeast 220 253 7,900  Level Salt Lake Center

Login

Don't have an account? Register now (free) for customized features, flight alerts, and more!